Time;durP1;ratioP1;P1;durP2;ratioP2;P2;SDS_P1;SDS_P2;PMS_P1;PMS_P2;Temp;Humidity;BMP_temperature;BMP_pressure;BME280_temperature;BME280_humidity;BME280_pressure;Samples;Min_cycle;Max_cycle;Signal;HPM_P1;HPM_P2
2021/11/26 00:01:48;;;;;;;8.18;7.40;;;;;;;;;;5094414;28;20210;-81
2021/11/26 00:04:19;;;;;;;9.43;8.30;;;;;;;;;;5094817;28;20251;-81
2021/11/26 00:06:46;;;;;;;9.73;7.30;;;;;;;;;;5094331;28;20220;-80
2021/11/26 00:09:14;;;;;;;8.30;7.50;;;;;;;;;;5093713;28;20235;-81
2021/11/26 00:11:41;;;;;;;9.88;8.95;;;;;;;;;;5094420;28;20230;-80
2021/11/26 00:14:15;;;;;;;7.93;6.78;;;;;;;;;;5093815;28;20293;-81
2021/11/26 00:16:43;;;;;;;10.18;6.10;;;;;;;;;;5094409;28;20224;-80
2021/11/26 00:19:12;;;;;;;6.55;5.80;;;;;;;;;;5093952;28;20662;-80
2021/11/26 00:21:43;;;;;;;9.48;7.75;;;;;;;;;;5094297;28;20212;-80
2021/11/26 00:24:13;;;;;;;10.02;7.57;;;;;;;;;;5094245;28;20200;-80
2021/11/26 00:26:41;;;;;;;7.85;6.95;;;;;;;;;;5093727;28;20242;-80
2021/11/26 00:29:09;;;;;;;10.07;8.15;;;;;;;;;;5093959;28;20291;-80
2021/11/26 00:31:37;;;;;;;7.32;6.28;;;;;;;;;;5093445;28;20320;-80
2021/11/26 00:34:06;;;;;;;7.60;6.80;;;;;;;;;;5093717;28;20231;-79
2021/11/26 00:36:35;;;;;;;8.50;5.68;;;;;;;;;;5093954;28;20769;-80
2021/11/26 00:39:05;;;;;;;6.05;4.72;;;;;;;;;;5093819;28;20271;-81
2021/11/26 00:41:33;;;;;;;5.47;4.97;;;;;;;;;;5092932;28;20224;-81
2021/11/26 00:44:00;;;;;;;5.63;4.38;;;;;;;;;;5093250;28;20307;-80
2021/11/26 00:46:28;;;;;;;5.13;4.28;;;;;;;;;;5093224;28;20251;-81
2021/11/26 00:48:56;;;;;;;5.20;4.75;;;;;;;;;;5095744;28;20216;-80
2021/11/26 00:51:23;;;;;;;5.05;4.18;;;;;;;;;;5097926;28;20243;-80
2021/11/26 00:53:52;;;;;;;4.93;4.32;;;;;;;;;;5097597;28;20279;-81
2021/11/26 00:56:21;;;;;;;5.32;4.38;;;;;;;;;;5097549;28;20307;-81
2021/11/26 00:58:49;;;;;;;4.70;4.20;;;;;;;;;;5097915;28;20181;-80
2021/11/26 01:01:16;;;;;;;6.38;5.18;;;;;;;;;;5097749;28;20283;-80
2021/11/26 01:03:44;;;;;;;5.68;5.07;;;;;;;;;;5097823;28;20244;-79
2021/11/26 01:06:12;;;;;;;5.10;4.38;;;;;;;;;;5096875;28;20307;-79
2021/11/26 01:08:39;;;;;;;6.88;4.47;;;;;;;;;;5097608;28;20234;-81
2021/11/26 01:11:09;;;;;;;5.25;4.22;;;;;;;;;;5097343;28;20738;-79
2021/11/26 01:13:36;;;;;;;6.90;5.10;;;;;;;;;;5097494;28;20272;-81
2021/11/26 01:16:04;;;;;;;6.10;4.57;;;;;;;;;;5097236;28;20224;-81
2021/11/26 01:18:32;;;;;;;5.90;4.32;;;;;;;;;;5097166;28;20289;-80
2021/11/26 01:21:00;;;;;;;7.03;4.45;;;;;;;;;;5097273;28;20220;-79
2021/11/26 01:23:28;;;;;;;5.90;4.38;;;;;;;;;;5097216;28;20650;-81
2021/11/26 01:25:57;;;;;;;6.00;4.30;;;;;;;;;;5097193;28;20223;-80
2021/11/26 01:28:26;;;;;;;4.10;3.30;;;;;;;;;;5096630;28;20241;-80
2021/11/26 01:30:53;;;;;;;4.38;3.40;;;;;;;;;;5096881;28;20243;-80
2021/11/26 01:33:22;;;;;;;3.03;2.72;;;;;;;;;;5096884;28;20232;-81
2021/11/26 01:35:53;;;;;;;4.15;3.28;;;;;;;;;;5097039;28;20228;-81
2021/11/26 01:38:21;;;;;;;3.28;2.78;;;;;;;;;;5096735;28;20670;-80
2021/11/26 01:40:50;;;;;;;4.13;3.72;;;;;;;;;;5096975;28;20280;-80
2021/11/26 01:43:20;;;;;;;4.32;3.10;;;;;;;;;;5096662;28;20224;-81
2021/11/26 01:45:52;;;;;;;3.95;3.35;;;;;;;;;;5097091;28;20204;-80
2021/11/26 01:48:20;;;;;;;2.58;2.38;;;;;;;;;;5096966;28;20220;-81
2021/11/26 01:50:49;;;;;;;3.72;2.90;;;;;;;;;;5096420;28;20221;-80
2021/11/26 01:53:17;;;;;;;3.80;3.50;;;;;;;;;;5096763;28;20180;-81
2021/11/26 01:55:45;;;;;;;3.53;3.13;;;;;;;;;;5096355;28;20287;-80
2021/11/26 01:58:13;;;;;;;4.13;3.83;;;;;;;;;;5096506;28;20618;-81
2021/11/26 02:00:44;;;;;;;3.78;3.38;;;;;;;;;;5095706;28;20232;-81
2021/11/26 02:03:13;;;;;;;8.40;4.53;;;;;;;;;;5096397;28;20224;-81
2021/11/26 02:05:41;;;;;;;5.22;4.57;;;;;;;;;;5096276;28;20231;-80
2021/11/26 02:08:10;;;;;;;6.43;5.30;;;;;;;;;;5096150;28;20612;-80
2021/11/26 02:10:39;;;;;;;4.25;3.88;;;;;;;;;;5096374;28;20227;-80
2021/11/26 02:13:07;;;;;;;4.55;4.22;;;;;;;;;;5096777;28;20216;-80
2021/11/26 02:15:40;;;;;;;5.97;5.38;;;;;;;;;;5096832;28;20267;-80
2021/11/26 02:18:08;;;;;;;5.57;5.07;;;;;;;;;;5096508;28;20307;-80
2021/11/26 02:20:38;;;;;;;12.63;6.88;;;;;;;;;;5096027;28;20247;-80
2021/11/26 02:23:06;;;;;;;8.43;7.63;;;;;;;;;;5096427;28;20291;-80
2021/11/26 02:25:34;;;;;;;7.38;6.53;;;;;;;;;;5096423;28;20288;-81
2021/11/26 02:28:04;;;;;;;6.45;5.45;;;;;;;;;;5096244;28;20255;-81
2021/11/26 02:30:32;;;;;;;8.80;6.18;;;;;;;;;;5096405;28;20212;-81
2021/11/26 02:33:03;;;;;;;7.45;5.43;;;;;;;;;;5096000;28;20338;-80
2021/11/26 02:35:31;;;;;;;7.72;6.32;;;;;;;;;;5096358;28;20669;-80
2021/11/26 02:38:01;;;;;;;9.10;6.38;;;;;;;;;;5095745;28;20660;-81
2021/11/26 02:40:30;;;;;;;8.05;5.40;;;;;;;;;;5095729;28;20180;-81
2021/11/26 02:42:59;;;;;;;6.95;6.13;;;;;;;;;;5095913;28;20283;-80
2021/11/26 02:45:27;;;;;;;7.82;6.72;;;;;;;;;;5095810;28;20236;-81
2021/11/26 02:47:56;;;;;;;7.68;6.63;;;;;;;;;;5095590;28;20307;-81
2021/11/26 02:50:26;;;;;;;6.22;5.57;;;;;;;;;;5095714;28;20180;-81
2021/11/26 02:52:54;;;;;;;8.35;5.70;;;;;;;;;;5096059;28;20246;-80
2021/11/26 02:55:26;;;;;;;6.35;4.72;;;;;;;;;;5095864;28;20228;-80
2021/11/26 02:57:54;;;;;;;6.10;5.40;;;;;;;;;;5095436;28;20308;-80
2021/11/26 03:00:25;;;;;;;7.15;6.32;;;;;;;;;;5095762;28;20223;-81
2021/11/26 03:02:54;;;;;;;6.45;5.78;;;;;;;;;;5095333;28;20231;-80
2021/11/26 03:05:22;;;;;;;6.90;5.80;;;;;;;;;;5095674;28;20239;-81
2021/11/26 03:07:50;;;;;;;8.10;6.57;;;;;;;;;;5095417;28;20574;-81
2021/11/26 03:10:22;;;;;;;7.43;6.13;;;;;;;;;;5095214;28;20286;-81
2021/11/26 03:12:53;;;;;;;6.60;5.68;;;;;;;;;;5094203;28;20279;-80
2021/11/26 03:15:21;;;;;;;6.45;5.85;;;;;;;;;;5095397;28;20224;-81
2021/11/26 03:17:50;;;;;;;8.00;6.10;;;;;;;;;;5095011;28;20224;-80
2021/11/26 03:20:18;;;;;;;8.63;6.70;;;;;;;;;;5095023;28;20232;-79
2021/11/26 03:22:46;;;;;;;6.40;5.63;;;;;;;;;;5095067;28;20295;-81
2021/11/26 03:25:14;;;;;;;8.27;6.07;;;;;;;;;;5094825;28;20255;-80
2021/11/26 03:27:43;;;;;;;12.50;6.75;;;;;;;;;;5094782;28;20255;-81
2021/11/26 03:30:14;;;;;;;6.85;5.80;;;;;;;;;;5093981;28;20235;-80
2021/11/26 03:32:42;;;;;;;8.25;6.43;;;;;;;;;;5093321;28;20224;-81
2021/11/26 03:35:11;;;;;;;6.82;5.85;;;;;;;;;;5094856;28;20693;-80
2021/11/26 03:37:39;;;;;;;6.78;6.03;;;;;;;;;;5094819;28;20256;-80
2021/11/26 03:40:10;;;;;;;10.18;7.13;;;;;;;;;;5094755;28;20663;-81
2021/11/26 03:42:37;;;;;;;10.07;6.10;;;;;;;;;;5094573;28;20216;-79
2021/11/26 03:45:09;;;;;;;9.13;7.55;;;;;;;;;;5094835;28;20247;-81
2021/11/26 03:47:37;;;;;;;9.15;6.90;;;;;;;;;;5094401;28;20710;-81
2021/11/26 03:50:08;;;;;;;12.90;7.30;;;;;;;;;;5094386;28;20220;-81
2021/11/26 03:52:35;;;;;;;8.30;6.10;;;;;;;;;;5094360;28;20678;-81
2021/11/26 03:55:03;;;;;;;7.80;6.88;;;;;;;;;;5094509;28;20200;-81
2021/11/26 03:57:31;;;;;;;7.78;6.40;;;;;;;;;;5093926;28;20281;-81
2021/11/26 03:59:58;;;;;;;8.18;6.35;;;;;;;;;;5094202;28;20239;-80
2021/11/26 04:02:27;;;;;;;11.65;8.82;;;;;;;;;;5094845;28;20184;-80
2021/11/26 04:04:55;;;;;;;9.23;7.30;;;;;;;;;;5094232;28;20287;-80
2021/11/26 04:07:23;;;;;;;9.77;7.50;;;;;;;;;;5093967;28;20303;-81
2021/11/26 04:09:51;;;;;;;7.78;6.85;;;;;;;;;;5094773;28;20223;-81
2021/11/26 04:12:18;;;;;;;8.32;6.35;;;;;;;;;;5094010;28;20207;-80
2021/11/26 04:14:52;;;;;;;12.27;8.20;;;;;;;;;;5094075;28;20200;-81
2021/11/26 04:17:20;;;;;;;8.27;7.25;;;;;;;;;;5094007;28;20212;-80
2021/11/26 04:19:49;;;;;;;9.93;7.45;;;;;;;;;;5093511;28;20230;-81
2021/11/26 04:22:17;;;;;;;11.43;7.95;;;;;;;;;;5093866;28;20231;-80
2021/11/26 04:24:44;;;;;;;12.48;8.20;;;;;;;;;;5093725;28;20227;-81
2021/11/26 04:27:12;;;;;;;10.73;7.03;;;;;;;;;;5093287;28;20306;-80
2021/11/26 04:29:40;;;;;;;12.48;7.70;;;;;;;;;;5093843;28;20246;-81
2021/11/26 04:32:09;;;;;;;8.30;5.70;;;;;;;;;;5094031;28;20266;-80
2021/11/26 04:34:37;;;;;;;13.60;9.68;;;;;;;;;;5093998;28;20184;-80
2021/11/26 04:37:06;;;;;;;11.70;7.95;;;;;;;;;;5093157;28;20244;-80
2021/11/26 04:39:34;;;;;;;6.88;6.10;;;;;;;;;;5093548;28;20219;-80
2021/11/26 04:42:02;;;;;;;8.93;6.47;;;;;;;;;;5093240;28;20240;-81
2021/11/26 04:44:30;;;;;;;8.13;5.85;;;;;;;;;;5093412;28;20231;-81
2021/11/26 04:46:57;;;;;;;7.55;5.35;;;;;;;;;;5093651;28;20648;-80
2021/11/26 04:49:25;;;;;;;8.40;5.68;;;;;;;;;;5093897;28;20296;-81
2021/11/26 04:51:53;;;;;;;8.55;7.03;;;;;;;;;;5093553;28;20705;-80
2021/11/26 04:54:22;;;;;;;8.20;6.93;;;;;;;;;;5093799;28;20897;-80
2021/11/26 04:56:50;;;;;;;10.05;8.23;;;;;;;;;;5093698;28;20255;-81
2021/11/26 04:59:18;;;;;;;11.25;6.57;;;;;;;;;;5093438;28;20235;-79
2021/11/26 05:01:45;;;;;;;12.15;6.75;;;;;;;;;;5093632;28;20215;-81
2021/11/26 05:04:13;;;;;;;6.40;5.70;;;;;;;;;;5093981;28;20212;-80
2021/11/26 05:06:40;;;;;;;8.57;5.90;;;;;;;;;;5093630;28;20641;-79
2021/11/26 05:09:10;;;;;;;7.50;6.63;;;;;;;;;;5093236;28;20268;-80
2021/11/26 05:11:39;;;;;;;9.70;5.93;;;;;;;;;;5093799;28;20191;-81
2021/11/26 05:14:08;;;;;;;8.85;6.20;;;;;;;;;;5093618;28;20552;-80
2021/11/26 05:16:36;;;;;;;11.18;8.65;;;;;;;;;;5093049;28;20220;-80
2021/11/26 05:19:05;;;;;;;10.13;7.50;;;;;;;;;;5093429;28;20217;-80
2021/11/26 05:21:33;;;;;;;7.80;6.88;;;;;;;;;;5093325;28;20234;-80
2021/11/26 05:24:00;;;;;;;8.80;5.60;;;;;;;;;;5093702;28;20228;-80
2021/11/26 05:26:28;;;;;;;6.93;5.20;;;;;;;;;;5093099;28;20304;-79
2021/11/26 05:28:57;;;;;;;7.72;4.85;;;;;;;;;;5093247;28;20674;-81
2021/11/26 05:31:24;;;;;;;7.05;5.25;;;;;;;;;;5093273;28;20648;-79
2021/11/26 05:33:53;;;;;;;13.60;6.35;;;;;;;;;;5093547;28;20276;-81
2021/11/26 05:36:21;;;;;;;6.95;5.35;;;;;;;;;;5095530;28;20221;-80
2021/11/26 05:38:48;;;;;;;8.70;6.90;;;;;;;;;;5096592;28;20212;-79
2021/11/26 05:41:16;;;;;;;11.45;7.32;;;;;;;;;;5097098;28;20211;-81
2021/11/26 05:43:44;;;;;;;11.60;7.75;;;;;;;;;;5096770;28;20628;-81
2021/11/26 05:46:14;;;;;;;8.55;7.57;;;;;;;;;;5097039;28;20275;-80
2021/11/26 05:48:42;;;;;;;8.38;6.97;;;;;;;;;;5097347;28;20188;-80
2021/11/26 05:51:10;;;;;;;9.43;7.72;;;;;;;;;;5096944;28;20220;-83
2021/11/26 05:53:37;;;;;;;10.38;8.02;;;;;;;;;;5097137;28;20584;-81
2021/11/26 05:56:05;;;;;;;11.13;7.90;;;;;;;;;;5097007;28;20255;-80
2021/11/26 05:58:33;;;;;;;8.93;7.65;;;;;;;;;;5096043;28;20239;-80
2021/11/26 06:01:01;;;;;;;9.45;6.90;;;;;;;;;;5096590;28;20239;-81
2021/11/26 06:03:31;;;;;;;8.70;7.47;;;;;;;;;;5096518;28;20228;-82
2021/11/26 06:05:58;;;;;;;7.72;6.53;;;;;;;;;;5096672;28;20243;-80
2021/11/26 06:08:27;;;;;;;11.57;7.78;;;;;;;;;;5094744;28;20307;-80
2021/11/26 06:10:55;;;;;;;8.52;6.93;;;;;;;;;;5096116;28;20833;-80
2021/11/26 06:13:23;;;;;;;9.98;7.82;;;;;;;;;;5096101;28;20281;-80
2021/11/26 06:15:51;;;;;;;8.68;6.05;;;;;;;;;;5096341;28;20246;-80
2021/11/26 06:18:18;;;;;;;10.32;6.30;;;;;;;;;;5096820;28;20224;-79
2021/11/26 06:20:48;;;;;;;8.25;6.15;;;;;;;;;;5096540;28;20255;-80
2021/11/26 06:23:16;;;;;;;9.57;6.57;;;;;;;;;;5096476;28;20184;-80
2021/11/26 06:25:44;;;;;;;12.52;7.20;;;;;;;;;;5095662;28;20640;-80
2021/11/26 06:28:11;;;;;;;8.70;6.82;;;;;;;;;;5095796;28;20311;-80
2021/11/26 06:30:39;;;;;;;7.60;6.10;;;;;;;;;;5083365;28;20276;-80
2021/11/26 06:33:07;;;;;;;8.15;5.70;;;;;;;;;;5083403;28;20320;-80
2021/11/26 06:35:34;;;;;;;7.97;5.88;;;;;;;;;;5080855;28;20296;-80
2021/11/26 06:38:03;;;;;;;7.32;6.55;;;;;;;;;;5074980;28;20308;-80
2021/11/26 06:40:31;;;;;;;8.55;6.68;;;;;;;;;;5075083;28;20284;-80
2021/11/26 06:42:59;;;;;;;11.75;8.05;;;;;;;;;;5075107;28;20237;-80
2021/11/26 06:45:27;;;;;;;7.60;6.57;;;;;;;;;;5074635;28;20687;-82
2021/11/26 06:47:54;;;;;;;8.77;6.20;;;;;;;;;;5074507;28;20307;-80
2021/11/26 06:50:22;;;;;;;8.75;6.60;;;;;;;;;;5075331;28;20699;-79
2021/11/26 06:52:50;;;;;;;7.80;6.68;;;;;;;;;;5074975;28;20236;-79
2021/11/26 06:55:19;;;;;;;11.73;7.10;;;;;;;;;;5074456;28;20646;-78
2021/11/26 06:57:47;;;;;;;12.32;7.43;;;;;;;;;;5073963;28;20267;-79
2021/11/26 07:00:16;;;;;;;12.50;8.35;;;;;;;;;;5073785;28;20284;-79
2021/11/26 07:02:44;;;;;;;14.65;8.93;;;;;;;;;;5074231;28;20280;-79
2021/11/26 07:05:12;;;;;;;9.65;7.95;;;;;;;;;;5074268;28;20653;-79
2021/11/26 07:07:40;;;;;;;10.77;8.07;;;;;;;;;;5073576;28;20275;-80
2021/11/26 07:10:10;;;;;;;12.20;8.25;;;;;;;;;;5073887;28;20690;-78
2021/11/26 07:12:40;;;;;;;10.43;7.82;;;;;;;;;;5074032;28;20236;-79
2021/11/26 07:15:10;;;;;;;8.18;6.43;;;;;;;;;;5073761;28;20237;-79
2021/11/26 07:17:38;;;;;;;11.13;7.30;;;;;;;;;;5073954;28;20286;-79
2021/11/26 07:20:08;;;;;;;9.55;7.22;;;;;;;;;;5073948;28;20280;-80
2021/11/26 07:22:36;;;;;;;11.35;8.07;;;;;;;;;;5074238;28;20201;-79
2021/11/26 07:25:04;;;;;;;10.07;8.05;;;;;;;;;;5079534;28;20221;-79
2021/11/26 07:27:32;;;;;;;10.25;8.30;;;;;;;;;;5088245;28;20316;-79
2021/11/26 07:30:01;;;;;;;10.43;8.00;;;;;;;;;;5088362;28;20224;-79
2021/11/26 07:32:28;;;;;;;9.25;7.60;;;;;;;;;;5079729;28;20260;-79
2021/11/26 07:34:56;;;;;;;12.13;7.32;;;;;;;;;;5091666;28;20227;-80
2021/11/26 07:37:25;;;;;;;10.57;8.30;;;;;;;;;;5093292;28;20239;-79
2021/11/26 07:39:53;;;;;;;17.98;11.13;;;;;;;;;;5091783;28;20241;-79
2021/11/26 07:42:21;;;;;;;11.82;9.27;;;;;;;;;;5082176;28;20228;-80
2021/11/26 07:44:48;;;;;;;15.07;9.93;;;;;;;;;;5073860;28;20236;-79
2021/11/26 07:47:18;;;;;;;11.05;8.50;;;;;;;;;;5073216;28;20256;-79
2021/11/26 07:49:46;;;;;;;12.27;8.88;;;;;;;;;;5073107;28;20208;-79
2021/11/26 07:52:14;;;;;;;10.00;7.95;;;;;;;;;;5073340;28;20209;-80
2021/11/26 07:54:42;;;;;;;12.57;9.35;;;;;;;;;;5075264;28;20242;-80
2021/11/26 07:57:10;;;;;;;11.50;8.63;;;;;;;;;;5073127;28;20657;-80
2021/11/26 07:59:38;;;;;;;7.78;7.03;;;;;;;;;;5072948;28;20186;-80
2021/11/26 08:02:06;;;;;;;10.63;8.02;;;;;;;;;;5072693;28;20255;-80
2021/11/26 08:04:35;;;;;;;11.18;8.07;;;;;;;;;;5073191;28;20224;-80
2021/11/26 08:07:03;;;;;;;10.35;8.18;;;;;;;;;;5072670;28;20718;-80
2021/11/26 08:09:31;;;;;;;9.48;8.23;;;;;;;;;;5073064;28;20274;-79
2021/11/26 08:11:59;;;;;;;10.02;8.88;;;;;;;;;;5073156;28;20254;-80
2021/11/26 08:14:27;;;;;;;11.20;9.90;;;;;;;;;;5073059;28;20211;-80
2021/11/26 08:16:56;;;;;;;11.50;9.68;;;;;;;;;;5072706;28;20282;-80
2021/11/26 08:19:26;;;;;;;10.48;8.88;;;;;;;;;;5072880;28;20209;-79
2021/11/26 08:21:56;;;;;;;15.57;10.82;;;;;;;;;;5072932;28;20225;-80
2021/11/26 08:24:24;;;;;;;10.88;9.10;;;;;;;;;;5083073;28;20231;-79
2021/11/26 08:26:53;;;;;;;11.88;9.50;;;;;;;;;;5093283;28;20306;-79
2021/11/26 08:29:20;;;;;;;11.82;9.32;;;;;;;;;;5092736;28;20301;-81
2021/11/26 08:31:48;;;;;;;9.55;8.25;;;;;;;;;;5089082;28;20248;-79
2021/11/26 08:34:16;;;;;;;10.55;8.35;;;;;;;;;;5083552;28;20763;-80
2021/11/26 08:36:44;;;;;;;13.50;9.75;;;;;;;;;;5093321;28;20252;-80
2021/11/26 08:39:13;;;;;;;8.93;8.02;;;;;;;;;;5093323;28;20272;-80
2021/11/26 08:41:41;;;;;;;10.32;8.05;;;;;;;;;;5092443;28;20212;-80
2021/11/26 08:44:10;;;;;;;9.63;8.00;;;;;;;;;;5093474;28;20220;-81
2021/11/26 08:46:37;;;;;;;13.07;10.68;;;;;;;;;;5093116;28;20220;-80
2021/11/26 08:49:06;;;;;;;8.57;7.63;;;;;;;;;;5093309;28;20240;-80
2021/11/26 08:51:35;;;;;;;10.68;8.32;;;;;;;;;;5093256;28;20261;-79
2021/11/26 08:54:03;;;;;;;10.70;8.65;;;;;;;;;;5093511;28;20185;-80
2021/11/26 08:56:33;;;;;;;8.90;6.93;;;;;;;;;;5093357;28;20569;-81
2021/11/26 08:59:02;;;;;;;12.40;9.25;;;;;;;;;;5086180;28;20652;-80
2021/11/26 09:01:32;;;;;;;11.35;9.07;;;;;;;;;;5076697;28;20188;-79
2021/11/26 09:04:00;;;;;;;10.45;8.90;;;;;;;;;;5083796;28;20192;-80
2021/11/26 09:06:28;;;;;;;11.43;9.93;;;;;;;;;;5093513;28;20283;-81
2021/11/26 09:08:56;;;;;;;12.30;9.82;;;;;;;;;;5093459;28;20263;-79
2021/11/26 09:11:24;;;;;;;11.70;9.25;;;;;;;;;;5098096;28;20409;-80
2021/11/26 09:13:53;;;;;;;10.57;9.32;;;;;;;;;;5095618;28;20255;-80
2021/11/26 09:16:21;;;;;;;9.57;8.52;;;;;;;;;;5077047;28;20252;-78
2021/11/26 09:18:49;;;;;;;13.02;11.45;;;;;;;;;;5076879;28;20662;-79
2021/11/26 09:21:16;;;;;;;13.75;11.43;;;;;;;;;;5076796;28;20243;-80
2021/11/26 09:23:53;;;;;;;12.43;9.18;;;;;;;;;;5076902;28;20213;-78
2021/11/26 09:26:21;;;;;;;10.75;9.02;;;;;;;;;;5076089;28;20233;-79
2021/11/26 09:28:48;;;;;;;12.48;9.07;;;;;;;;;;5075992;28;20264;-81
2021/11/26 09:31:18;;;;;;;8.48;7.22;;;;;;;;;;5077320;28;20698;-79
2021/11/26 09:33:47;;;;;;;9.77;8.77;;;;;;;;;;5077493;28;20262;-78
2021/11/26 09:36:15;;;;;;;7.28;6.40;;;;;;;;;;5078155;28;20225;-79
2021/11/26 09:38:43;;;;;;;10.88;8.05;;;;;;;;;;5077779;28;20257;-79
2021/11/26 09:41:14;;;;;;;8.77;7.82;;;;;;;;;;5077619;28;20247;-79
2021/11/26 09:43:43;;;;;;;9.20;8.30;;;;;;;;;;5077588;28;20254;-79
2021/11/26 09:46:11;;;;;;;7.80;7.00;;;;;;;;;;5077681;28;20221;-79
2021/11/26 09:48:40;;;;;;;8.80;7.90;;;;;;;;;;5077642;28;20311;-79
2021/11/26 09:51:08;;;;;;;9.02;7.10;;;;;;;;;;5077577;28;20241;-79
2021/11/26 09:53:36;;;;;;;8.43;7.13;;;;;;;;;;5077635;28;20240;-79
2021/11/26 09:56:07;;;;;;;9.45;7.20;;;;;;;;;;5077904;28;20237;-79
2021/11/26 09:58:36;;;;;;;11.20;8.93;;;;;;;;;;5078044;28;20679;-80
2021/11/26 10:01:07;;;;;;;11.35;9.77;;;;;;;;;;5077681;28;20233;-82
2021/11/26 10:03:43;;;;;;;10.55;8.63;;;;;;;;;;5077664;28;20243;-81
2021/11/26 10:06:22;;;;;;;9.48;8.27;;;;;;;;;;5077710;28;20229;-80
2021/11/26 10:09:04;;;;;;;12.05;8.18;;;;;;;;;;5077812;28;20621;-79
2021/11/26 10:11:37;;;;;;;13.60;9.38;;;;;;;;;;5077838;28;20197;-80
2021/11/26 10:14:18;;;;;;;10.32;8.77;;;;;;;;;;5077404;28;20394;-80
2021/11/26 10:16:49;;;;;;;9.32;8.10;;;;;;;;;;5077543;28;20255;-80
2021/11/26 10:19:18;;;;;;;12.75;9.98;;;;;;;;;;5077260;28;20196;-79
2021/11/26 10:21:46;;;;;;;10.60;9.50;;;;;;;;;;5077257;28;20228;-79
2021/11/26 10:24:18;;;;;;;10.48;8.85;;;;;;;;;;5077850;28;20201;-80
2021/11/26 10:26:55;;;;;;;10.88;8.90;;;;;;;;;;5077095;28;20715;-79
2021/11/26 10:29:35;;;;;;;10.65;8.63;;;;;;;;;;5076934;28;20690;-79
2021/11/26 10:32:10;;;;;;;10.27;8.80;;;;;;;;;;5076817;28;20268;-79
2021/11/26 10:34:40;;;;;;;10.75;8.95;;;;;;;;;;5077730;28;20235;-80
2021/11/26 10:37:20;;;;;;;10.77;9.43;;;;;;;;;;5076693;28;20221;-80
2021/11/26 10:39:48;;;;;;;8.35;7.55;;;;;;;;;;5077679;28;20227;-80
2021/11/26 10:42:27;;;;;;;9.98;7.03;;;;;;;;;;5077283;28;20205;-80
2021/11/26 10:44:59;;;;;;;8.90;7.47;;;;;;;;;;5077134;28;20205;-79
2021/11/26 10:47:40;;;;;;;7.30;6.55;;;;;;;;;;5077176;28;20314;-79
2021/11/26 10:50:32;;;;;;;7.78;6.18;;;;;;;;;;5076855;28;20225;-80
2021/11/26 10:58:40;;;;;;;6.97;6.28;;;;;;;;;;5076791;28;20264;-80
2021/11/26 11:01:10;;;;;;;7.13;6.43;;;;;;;;;;5076591;28;20200;-80
2021/11/26 11:03:38;;;;;;;7.20;5.78;;;;;;;;;;5076657;28;20248;-79
2021/11/26 11:06:20;;;;;;;5.68;4.85;;;;;;;;;;5075966;28;20275;-80
2021/11/26 11:08:58;;;;;;;6.90;6.20;;;;;;;;;;5077033;28;20201;-81
2021/11/26 11:11:25;;;;;;;7.13;6.40;;;;;;;;;;5076105;28;20251;-80
2021/11/26 11:13:53;;;;;;;5.90;5.30;;;;;;;;;;5076646;28;20231;-80
2021/11/26 11:16:20;;;;;;;5.45;4.95;;;;;;;;;;5076072;28;20221;-80
2021/11/26 11:18:48;;;;;;;5.00;4.60;;;;;;;;;;5075916;28;20288;-80
2021/11/26 11:21:18;;;;;;;4.68;4.20;;;;;;;;;;5076390;28;20224;-80
2021/11/26 11:23:46;;;;;;;4.63;4.22;;;;;;;;;;5076192;28;20201;-79
2021/11/26 11:26:14;;;;;;;6.20;5.05;;;;;;;;;;5075702;28;20256;-80
2021/11/26 11:28:41;;;;;;;5.90;5.32;;;;;;;;;;5076143;28;20252;-80
2021/11/26 11:31:09;;;;;;;4.78;4.38;;;;;;;;;;5075451;28;20783;-80
2021/11/26 11:33:37;;;;;;;5.18;4.68;;;;;;;;;;5074531;28;20227;-80
2021/11/26 11:36:07;;;;;;;5.15;4.75;;;;;;;;;;5075598;28;20719;-80
2021/11/26 11:38:38;;;;;;;4.35;3.97;;;;;;;;;;5076136;28;20209;-80
2021/11/26 11:41:08;;;;;;;4.03;3.72;;;;;;;;;;5076282;28;20208;-80
2021/11/26 11:43:43;;;;;;;4.18;3.78;;;;;;;;;;5075710;28;20612;-80
2021/11/26 11:46:12;;;;;;;4.47;4.07;;;;;;;;;;5076498;28;20252;-80
2021/11/26 11:48:45;;;;;;;3.83;3.53;;;;;;;;;;5075547;28;20208;-80
2021/11/26 11:51:23;;;;;;;4.90;4.40;;;;;;;;;;5075677;28;20690;-80
2021/11/26 11:54:04;;;;;;;4.88;4.30;;;;;;;;;;5075181;28;20211;-81
2021/11/26 11:56:44;;;;;;;5.25;4.75;;;;;;;;;;5075225;28;20219;-80
2021/11/26 11:59:23;;;;;;;4.85;4.35;;;;;;;;;;5075275;28;20256;-80
2021/11/26 12:01:50;;;;;;;4.00;3.65;;;;;;;;;;5074939;28;20232;-80
2021/11/26 12:04:21;;;;;;;4.38;3.78;;;;;;;;;;5074557;28;20236;-80
2021/11/26 12:06:51;;;;;;;3.13;2.92;;;;;;;;;;5074872;28;20252;-80
2021/11/26 12:09:29;;;;;;;3.55;3.25;;;;;;;;;;5075035;28;20223;-80
2021/11/26 12:12:12;;;;;;;3.63;3.17;;;;;;;;;;5074915;28;20669;-80
2021/11/26 12:14:48;;;;;;;3.95;3.45;;;;;;;;;;5074181;28;20211;-80
2021/11/26 12:17:29;;;;;;;4.28;3.88;;;;;;;;;;5075059;28;20627;-80
2021/11/26 12:20:10;;;;;;;3.22;2.95;;;;;;;;;;5074143;28;20270;-80
2021/11/26 12:22:42;;;;;;;3.85;3.53;;;;;;;;;;5075079;28;20250;-80
2021/11/26 12:25:31;;;;;;;3.00;2.80;;;;;;;;;;5074809;28;20288;-80
2021/11/26 12:28:04;;;;;;;3.33;2.92;;;;;;;;;;5074726;28;20228;-80
2021/11/26 12:30:31;;;;;;;3.85;3.42;;;;;;;;;;5074695;28;20224;-80
2021/11/26 12:32:59;;;;;;;5.28;3.35;;;;;;;;;;5074857;28;20229;-80
2021/11/26 12:35:27;;;;;;;3.28;2.97;;;;;;;;;;5074262;28;20232;-80
2021/11/26 12:37:59;;;;;;;2.80;2.60;;;;;;;;;;5073982;28;20252;-80
2021/11/26 12:40:28;;;;;;;4.32;3.92;;;;;;;;;;5074588;28;20869;-80
2021/11/26 12:43:00;;;;;;;3.22;2.92;;;;;;;;;;5074616;28;20232;-80
2021/11/26 12:45:35;;;;;;;3.00;2.70;;;;;;;;;;5074819;28;20633;-80
2021/11/26 12:48:07;;;;;;;4.30;3.72;;;;;;;;;;5073963;28;20256;-80
2021/11/26 12:53:23;;;;;;;2.80;2.60;;;;;;;;;;5074017;28;20242;-81
2021/11/26 12:55:58;;;;;;;2.78;2.58;;;;;;;;;;5074319;28;20240;-80
2021/11/26 12:58:28;;;;;;;3.50;3.20;;;;;;;;;;5073920;28;20235;-81
2021/11/26 13:01:00;;;;;;;3.00;2.80;;;;;;;;;;5073968;28;20670;-80
2021/11/26 13:03:30;;;;;;;2.45;2.20;;;;;;;;;;5074215;28;20197;-81
2021/11/26 13:06:00;;;;;;;3.22;2.67;;;;;;;;;;5073873;28;20193;-81
2021/11/26 13:08:28;;;;;;;3.38;3.08;;;;;;;;;;5073666;28;20209;-80
2021/11/26 13:10:57;;;;;;;2.95;2.65;;;;;;;;;;5073619;28;20311;-80
2021/11/26 13:13:28;;;;;;;3.95;3.42;;;;;;;;;;5073554;28;20288;-81
2021/11/26 13:15:56;;;;;;;3.72;3.38;;;;;;;;;;5073545;28;20216;-81
2021/11/26 13:18:26;;;;;;;3.65;3.30;;;;;;;;;;5073590;28;20228;-81
2021/11/26 13:20:58;;;;;;;4.20;3.80;;;;;;;;;;5073602;28;20232;-81
2021/11/26 13:23:29;;;;;;;4.60;4.20;;;;;;;;;;5073871;28;20241;-81
2021/11/26 13:25:59;;;;;;;5.93;5.30;;;;;;;;;;5073624;28;20284;-81
2021/11/26 13:28:34;;;;;;;5.22;4.72;;;;;;;;;;5075102;28;20232;-82
2021/11/26 13:31:08;;;;;;;4.93;4.50;;;;;;;;;;5074192;28;20220;-81
2021/11/26 13:33:38;;;;;;;5.35;4.65;;;;;;;;;;5074405;28;20682;-81
2021/11/26 13:36:08;;;;;;;6.93;5.68;;;;;;;;;;5074241;28;20714;-80
2021/11/26 13:38:41;;;;;;;6.07;5.47;;;;;;;;;;5074230;28;20209;-81
2021/11/26 13:41:15;;;;;;;6.55;5.95;;;;;;;;;;5074888;28;20597;-81
2021/11/26 13:43:44;;;;;;;5.90;5.22;;;;;;;;;;5075129;28;20603;-81
2021/11/26 13:46:20;;;;;;;5.85;5.28;;;;;;;;;;5074486;28;20247;-81
2021/11/26 13:48:49;;;;;;;7.57;6.32;;;;;;;;;;5075350;28;20239;-81
2021/11/26 13:51:21;;;;;;;7.35;5.63;;;;;;;;;;5074412;28;20710;-81
2021/11/26 13:53:51;;;;;;;7.95;7.07;;;;;;;;;;5074101;28;20228;-81
2021/11/26 13:56:27;;;;;;;5.85;5.10;;;;;;;;;;5074836;28;20253;-81
2021/11/26 13:58:57;;;;;;;5.28;4.78;;;;;;;;;;5077766;28;20207;-81
2021/11/26 14:01:26;;;;;;;5.65;5.15;;;;;;;;;;5077778;28;20217;-81
2021/11/26 14:03:59;;;;;;;4.95;4.45;;;;;;;;;;5077816;28;20292;-81
2021/11/26 14:06:27;;;;;;;5.75;4.50;;;;;;;;;;5077956;28;20263;-81
2021/11/26 14:08:57;;;;;;;5.00;4.60;;;;;;;;;;5077680;28;20663;-81
2021/11/26 14:11:36;;;;;;;4.43;4.03;;;;;;;;;;5077378;28;20217;-80
2021/11/26 14:14:08;;;;;;;5.15;4.75;;;;;;;;;;5077945;28;20201;-81
2021/11/26 14:16:36;;;;;;;3.83;3.50;;;;;;;;;;5077549;28;20224;-81
2021/11/26 14:19:05;;;;;;;3.95;3.60;;;;;;;;;;5077395;28;20197;-80
2021/11/26 14:21:34;;;;;;;4.72;4.32;;;;;;;;;;5077709;28;20212;-81
2021/11/26 14:24:03;;;;;;;4.50;4.10;;;;;;;;;;5077537;28;20243;-81
2021/11/26 14:26:34;;;;;;;5.93;5.45;;;;;;;;;;5077325;28;20217;-81
2021/11/26 14:29:08;;;;;;;5.40;4.90;;;;;;;;;;5077193;28;20282;-81
2021/11/26 14:31:35;;;;;;;5.53;5.03;;;;;;;;;;5077077;28;20274;-81
2021/11/26 14:34:05;;;;;;;4.82;4.43;;;;;;;;;;5077538;28;20260;-81
2021/11/26 14:36:33;;;;;;;4.78;4.28;;;;;;;;;;5076842;28;20217;-81
2021/11/26 14:39:01;;;;;;;6.22;5.63;;;;;;;;;;5076847;28;20236;-81
2021/11/26 14:41:29;;;;;;;5.07;4.57;;;;;;;;;;5076963;28;20233;-81
2021/11/26 14:44:09;;;;;;;6.00;4.88;;;;;;;;;;5077868;28;20254;-81
2021/11/26 14:46:49;;;;;;;5.45;4.95;;;;;;;;;;5077347;28;20216;-81
2021/11/26 14:49:18;;;;;;;4.15;3.78;;;;;;;;;;5077367;28;20291;-81
2021/11/26 14:51:46;;;;;;;7.43;4.57;;;;;;;;;;5076807;28;20476;-81
2021/11/26 14:54:18;;;;;;;5.93;4.63;;;;;;;;;;5076800;28;20201;-81
2021/11/26 14:56:46;;;;;;;4.20;3.80;;;;;;;;;;5076708;28;20714;-81
2021/11/26 14:59:15;;;;;;;4.30;3.90;;;;;;;;;;5076880;28;20243;-81
2021/11/26 15:01:46;;;;;;;4.43;4.03;;;;;;;;;;5077786;28;20247;-81